sensor_id;sensor_type;location;lat;lon;timestamp;pressure;altitude;pressure_sealevel;temperature;humidity
76358;BME280;65185;21.060;105.826;2023-03-23T00:01:09;100527.69;;;25.58;100.00
76358;BME280;65185;21.060;105.826;2023-03-23T00:03:37;100528.88;;;25.57;100.00
76358;BME280;65185;21.060;105.826;2023-03-23T00:06:04;100528.47;;;25.58;100.00
76358;BME280;65185;21.060;105.826;2023-03-23T00:08:33;100531.94;;;25.75;100.00
76358;BME280;65185;21.060;105.826;2023-03-23T00:11:05;100542.84;;;25.67;100.00
76358;BME280;65185;21.060;105.826;2023-03-23T00:13:33;100548.63;;;25.62;100.00
76358;BME280;65185;21.060;105.826;2023-03-23T00:15:59;100547.38;;;25.60;100.00
76358;BME280;65185;21.060;105.826;2023-03-23T00:18:26;100553.63;;;25.57;100.00
76358;BME280;65185;21.060;105.826;2023-03-23T00:20:55;100568.38;;;25.52;100.00
76358;BME280;65185;21.060;105.826;2023-03-23T00:23:24;100555.03;;;25.51;100.00
76358;BME280;65185;21.060;105.826;2023-03-23T00:25:54;100573.03;;;25.48;100.00
76358;BME280;65185;21.060;105.826;2023-03-23T00:28:25;100572.97;;;25.45;100.00
76358;BME280;65185;21.060;105.826;2023-03-23T00:33:24;100585.47;;;25.42;100.00
76358;BME280;65185;21.060;105.826;2023-03-23T00:35:52;100589.81;;;25.43;100.00
76358;BME280;65185;21.060;105.826;2023-03-23T00:38:22;100604.72;;;25.42;100.00
76358;BME280;65185;21.060;105.826;2023-03-23T00:40:50;100599.72;;;25.48;100.00
76358;BME280;65185;21.060;105.826;2023-03-23T00:43:18;100609.91;;;25.47;100.00
76358;BME280;65185;21.060;105.826;2023-03-23T00:45:45;100617.75;;;25.45;100.00
76358;BME280;65185;21.060;105.826;2023-03-23T00:48:22;100616.94;;;25.45;100.00
76358;BME280;65185;21.060;105.826;2023-03-23T00:50:50;100624.06;;;25.46;100.00
76358;BME280;65185;21.060;105.826;2023-03-23T00:53:18;100624.06;;;25.46;100.00
76358;BME280;65185;21.060;105.826;2023-03-23T00:55:46;100627.22;;;25.48;100.00
76358;BME280;65185;21.060;105.826;2023-03-23T00:58:14;100629.63;;;25.49;100.00
76358;BME280;65185;21.060;105.826;2023-03-23T01:00:41;100627.31;;;25.51;100.00
76358;BME280;65185;21.060;105.826;2023-03-23T01:03:08;100632.09;;;25.54;100.00
76358;BME280;65185;21.060;105.826;2023-03-23T01:05:39;100630.94;;;25.55;100.00
76358;BME280;65185;21.060;105.826;2023-03-23T01:08:06;100637.59;;;25.54;100.00
76358;BME280;65185;21.060;105.826;2023-03-23T01:10:33;100643.56;;;25.56;100.00
76358;BME280;65185;21.060;105.826;2023-03-23T01:13:05;100642.03;;;25.59;100.00
76358;BME280;65185;21.060;105.826;2023-03-23T01:15:32;100642.84;;;25.59;100.00
76358;BME280;65185;21.060;105.826;2023-03-23T01:17:58;100648.00;;;25.61;100.00
76358;BME280;65185;21.060;105.826;2023-03-23T01:20:25;100647.66;;;25.62;100.00
76358;BME280;65185;21.060;105.826;2023-03-23T01:22:58;100651.97;;;25.63;100.00
76358;BME280;65185;21.060;105.826;2023-03-23T01:25:35;100650.47;;;25.66;100.00
76358;BME280;65185;21.060;105.826;2023-03-23T01:28:02;100652.06;;;25.67;100.00
76358;BME280;65185;21.060;105.826;2023-03-23T01:30:29;100650.53;;;25.70;100.00
76358;BME280;65185;21.060;105.826;2023-03-23T01:32:56;100660.81;;;25.73;100.00
76358;BME280;65185;21.060;105.826;2023-03-23T01:35:22;100651.44;;;25.74;100.00
76358;BME280;65185;21.060;105.826;2023-03-23T01:37:49;100657.72;;;25.74;100.00
76358;BME280;65185;21.060;105.826;2023-03-23T01:40:15;100656.94;;;25.74;100.00
76358;BME280;65185;21.060;105.826;2023-03-23T01:42:42;100657.34;;;25.76;100.00
76358;BME280;65185;21.060;105.826;2023-03-23T01:45:28;100671.91;;;25.76;100.00
76358;BME280;65185;21.060;105.826;2023-03-23T01:48:03;100654.69;;;25.79;100.00
76358;BME280;65185;21.060;105.826;2023-03-23T01:51:33;100669.47;;;25.90;100.00
76358;BME280;65185;21.060;105.826;2023-03-23T01:54:06;100658.47;;;25.90;100.00
76358;BME280;65185;21.060;105.826;2023-03-23T01:56:39;100663.16;;;25.90;100.00
76358;BME280;65185;21.060;105.826;2023-03-23T01:59:08;100652.59;;;25.92;100.00
76358;BME280;65185;21.060;105.826;2023-03-23T02:01:53;100658.88;;;25.92;100.00
76358;BME280;65185;21.060;105.826;2023-03-23T02:04:24;100655.78;;;25.94;100.00
76358;BME280;65185;21.060;105.826;2023-03-23T02:06:56;100658.97;;;25.96;100.00
76358;BME280;65185;21.060;105.826;2023-03-23T02:09:26;100657.44;;;25.98;100.00
76358;BME280;65185;21.060;105.826;2023-03-23T02:11:56;100673.25;;;26.01;100.00
76358;BME280;65185;21.060;105.826;2023-03-23T02:14:25;100671.72;;;26.04;100.00
76358;BME280;65185;21.060;105.826;2023-03-23T02:17:00;100673.81;;;26.11;100.00
76358;BME280;65185;21.060;105.826;2023-03-23T02:28:15;100672.38;;;26.17;100.00
76358;BME280;65185;21.060;105.826;2023-03-23T02:33:14;100677.44;;;26.15;100.00
76358;BME280;65185;21.060;105.826;2023-03-23T02:35:52;100669.69;;;26.20;100.00
76358;BME280;65185;21.060;105.826;2023-03-23T02:38:25;100680.03;;;26.23;100.00
76358;BME280;65185;21.060;105.826;2023-03-23T02:40:56;100680.81;;;26.24;100.00
76358;BME280;65185;21.060;105.826;2023-03-23T02:43:28;100684.78;;;26.26;100.00
76358;BME280;65185;21.060;105.826;2023-03-23T02:45:57;100677.78;;;26.29;100.00
76358;BME280;65185;21.060;105.826;2023-03-23T02:48:28;100684.88;;;26.30;100.00
76358;BME280;65185;21.060;105.826;2023-03-23T02:50:57;100691.19;;;26.30;100.00
76358;BME280;65185;21.060;105.826;2023-03-23T02:53:26;100677.84;;;26.32;100.00
76358;BME280;65185;21.060;105.826;2023-03-23T02:55:56;100687.69;;;26.33;100.00
76358;BME280;65185;21.060;105.826;2023-03-23T02:58:24;100679.88;;;26.35;100.00
76358;BME280;65185;21.060;105.826;2023-03-23T03:00:51;100677.53;;;26.37;100.00
76358;BME280;65185;21.060;105.826;2023-03-23T03:03:23;100666.63;;;26.41;100.00
76358;BME280;65185;21.060;105.826;2023-03-23T03:09:23;100673.44;;;26.70;100.00
76358;BME280;65185;21.060;105.826;2023-03-23T03:11:56;100658.63;;;26.78;100.00
76358;BME280;65185;21.060;105.826;2023-03-23T03:14:31;100656.94;;;26.93;100.00
76358;BME280;65185;21.060;105.826;2023-03-23T03:19:41;100637.09;;;27.33;100.00
76358;BME280;65185;21.060;105.826;2023-03-23T03:22:09;100650.25;;;27.43;100.00
76358;BME280;65185;21.060;105.826;2023-03-23T03:24:37;100639.81;;;27.52;100.00
76358;BME280;65185;21.060;105.826;2023-03-23T03:27:09;100654.00;;;27.54;100.00
76358;BME280;65185;21.060;105.826;2023-03-23T03:29:39;100645.72;;;27.80;100.00
76358;BME280;65185;21.060;105.826;2023-03-23T03:32:14;100648.19;;;28.52;100.00
76358;BME280;65185;21.060;105.826;2023-03-23T03:34:41;100640.72;;;28.97;100.00
76358;BME280;65185;21.060;105.826;2023-03-23T03:37:08;100645.16;;;29.63;100.00
76358;BME280;65185;21.060;105.826;2023-03-23T03:39:38;100640.34;;;30.25;100.00
76358;BME280;65185;21.060;105.826;2023-03-23T03:42:05;100638.88;;;30.70;100.00
76358;BME280;65185;21.060;105.826;2023-03-23T03:44:33;100636.09;;;30.95;100.00
76358;BME280;65185;21.060;105.826;2023-03-23T03:46:59;100637.69;;;30.85;100.00
76358;BME280;65185;21.060;105.826;2023-03-23T03:49:26;100627.38;;;31.00;100.00
76358;BME280;65185;21.060;105.826;2023-03-23T03:51:53;100628.19;;;31.11;100.00
76358;BME280;65185;21.060;105.826;2023-03-23T03:54:19;100620.63;;;31.33;100.00
76358;BME280;65185;21.060;105.826;2023-03-23T03:56:46;100619.06;;;31.35;100.00
76358;BME280;65185;21.060;105.826;2023-03-23T03:59:12;100607.00;;;31.88;100.00
76358;BME280;65185;21.060;105.826;2023-03-23T04:01:39;100611.44;;;31.68;100.00
76358;BME280;65185;21.060;105.826;2023-03-23T04:04:05;100603.06;;;31.78;100.00
76358;BME280;65185;21.060;105.826;2023-03-23T04:06:33;100598.28;;;31.90;99.89
76358;BME280;65185;21.060;105.826;2023-03-23T04:09:04;100591.88;;;32.03;100.00
76358;BME280;65185;21.060;105.826;2023-03-23T04:11:33;100590.31;;;31.99;100.00
76358;BME280;65185;21.060;105.826;2023-03-23T04:14:00;100573.72;;;31.81;100.00
76358;BME280;65185;21.060;105.826;2023-03-23T04:16:28;100572.91;;;31.77;100.00
76358;BME280;65185;21.060;105.826;2023-03-23T04:18:56;100567.84;;;31.51;100.00
76358;BME280;65185;21.060;105.826;2023-03-23T04:21:22;100560.41;;;31.23;100.00
76358;BME280;65185;21.060;105.826;2023-03-23T04:23:49;100545.25;;;31.45;100.00
76358;BME280;65185;21.060;105.826;2023-03-23T04:26:15;100547.31;;;30.98;100.00
76358;BME280;65185;21.060;105.826;2023-03-23T04:28:42;100546.56;;;31.05;100.00
76358;BME280;65185;21.060;105.826;2023-03-23T04:31:09;100542.59;;;30.60;100.00
76358;BME280;65185;21.060;105.826;2023-03-23T04:33:38;100545.31;;;30.28;100.00
76358;BME280;65185;21.060;105.826;2023-03-23T04:36:06;100535.78;;;30.04;100.00
76358;BME280;65185;21.060;105.826;2023-03-23T04:38:33;100526.31;;;30.23;100.00
76358;BME280;65185;21.060;105.826;2023-03-23T04:41:01;100527.09;;;30.16;100.00
76358;BME280;65185;21.060;105.826;2023-03-23T04:43:28;100517.97;;;29.98;100.00
76358;BME280;65185;21.060;105.826;2023-03-23T04:45:56;100511.56;;;29.80;100.00
76358;BME280;65185;21.060;105.826;2023-03-23T04:48:28;100502.88;;;29.85;100.00
76358;BME280;65185;21.060;105.826;2023-03-23T04:50:56;100502.94;;;29.96;100.00
76358;BME280;65185;21.060;105.826;2023-03-23T04:53:25;100500.16;;;29.92;100.00
76358;BME280;65185;21.060;105.826;2023-03-23T04:55:51;100487.84;;;29.83;100.00
76358;BME280;65185;21.060;105.826;2023-03-23T04:58:18;100490.63;;;29.90;100.00
76358;BME280;65185;21.060;105.826;2023-03-23T05:00:56;100473.53;;;29.52;100.00
76358;BME280;65185;21.060;105.826;2023-03-23T05:03:23;100482.16;;;29.40;100.00
76358;BME280;65185;21.060;105.826;2023-03-23T05:05:50;100476.25;;;29.45;100.00
76358;BME280;65185;21.060;105.826;2023-03-23T05:08:22;100460.13;;;29.68;100.00
76358;BME280;65185;21.060;105.826;2023-03-23T05:10:56;100455.78;;;29.64;100.00
76358;BME280;65185;21.060;105.826;2023-03-23T05:13:24;100447.88;;;29.69;100.00
76358;BME280;65185;21.060;105.826;2023-03-23T05:15:50;100437.16;;;29.57;100.00
76358;BME280;65185;21.060;105.826;2023-03-23T05:18:17;100437.94;;;29.47;100.00
76358;BME280;65185;21.060;105.826;2023-03-23T05:20:46;100434.34;;;29.36;100.00
76358;BME280;65185;21.060;105.826;2023-03-23T05:23:12;100427.16;;;29.31;100.00
76358;BME280;65185;21.060;105.826;2023-03-23T05:25:40;100417.38;;;29.55;100.00
76358;BME280;65185;21.060;105.826;2023-03-23T05:28:10;100407.88;;;29.46;100.00
76358;BME280;65185;21.060;105.826;2023-03-23T05:30:38;100403.91;;;29.36;100.00
76358;BME280;65185;21.060;105.826;2023-03-23T05:33:06;100391.28;;;29.42;100.00
76358;BME280;65185;21.060;105.826;2023-03-23T05:35:37;100384.91;;;29.38;100.00
76358;BME280;65185;21.060;105.826;2023-03-23T05:38:03;100369.06;;;29.24;100.00
76358;BME280;65185;21.060;105.826;2023-03-23T05:40:30;100363.88;;;29.09;100.00
76358;BME280;65185;21.060;105.826;2023-03-23T05:42:56;100360.38;;;29.29;100.00
76358;BME280;65185;21.060;105.826;2023-03-23T05:45:25;100357.22;;;29.31;100.00
76358;BME280;65185;21.060;105.826;2023-03-23T05:47:52;100346.91;;;29.21;100.00
76358;BME280;65185;21.060;105.826;2023-03-23T05:50:19;100343.75;;;29.19;100.00
76358;BME280;65185;21.060;105.826;2023-03-23T05:52:45;100340.25;;;29.32;100.00
76358;BME280;65185;21.060;105.826;2023-03-23T05:55:12;100343.75;;;29.19;100.00
76358;BME280;65185;21.060;105.826;2023-03-23T05:57:39;100339.00;;;29.09;100.00
76358;BME280;65185;21.060;105.826;2023-03-23T06:00:06;100334.63;;;29.08;100.00
76358;BME280;65185;21.060;105.826;2023-03-23T06:02:47;100343.75;;;29.19;100.00
76358;BME280;65185;21.060;105.826;2023-03-23T06:05:14;100337.78;;;29.10;100.00
76358;BME280;65185;21.060;105.826;2023-03-23T06:07:42;100324.78;;;29.14;100.00
76358;BME280;65185;21.060;105.826;2023-03-23T06:10:09;100320.44;;;29.20;100.00
76358;BME280;65185;21.060;105.826;2023-03-23T06:12:37;100312.91;;;29.10;100.00
76358;BME280;65185;21.060;105.826;2023-03-23T06:15:07;100302.63;;;29.07;100.00
76358;BME280;65185;21.060;105.826;2023-03-23T06:17:35;100303.41;;;29.04;100.00
76358;BME280;65185;21.060;105.826;2023-03-23T06:20:03;100296.31;;;29.06;100.00
76358;BME280;65185;21.060;105.826;2023-03-23T06:22:33;100295.47;;;28.99;100.00
76358;BME280;65185;21.060;105.826;2023-03-23T06:25:00;100289.22;;;29.12;100.00
76358;BME280;65185;21.060;105.826;2023-03-23T06:27:26;100276.56;;;29.08;100.00
76358;BME280;65185;21.060;105.826;2023-03-23T06:29:54;100267.84;;;28.99;100.00
76358;BME280;65185;21.060;105.826;2023-03-23T06:32:23;100275.00;;;29.14;100.00
76358;BME280;65185;21.060;105.826;2023-03-23T06:34:50;100263.94;;;29.24;100.00
76358;BME280;65185;21.060;105.826;2023-03-23T06:37:17;100263.94;;;29.28;100.00
76358;BME280;65185;21.060;105.826;2023-03-23T06:39:43;100257.59;;;29.06;100.00
76358;BME280;65185;21.060;105.826;2023-03-23T06:42:10;100239.44;;;29.09;100.00
76358;BME280;65185;21.060;105.826;2023-03-23T06:44:38;100240.97;;;28.96;100.00
76358;BME280;65185;21.060;105.826;2023-03-23T06:47:04;100236.25;;;29.10;100.00
76358;BME280;65185;21.060;105.826;2023-03-23T06:50:13;100229.53;;;29.11;100.00
76358;BME280;65185;21.060;105.826;2023-03-23T06:52:40;100215.69;;;29.04;100.00
76358;BME280;65185;21.060;105.826;2023-03-23T06:58:02;100206.25;;;29.09;100.00
76358;BME280;65185;21.060;105.826;2023-03-23T07:00:29;100204.69;;;29.25;100.00
76358;BME280;65185;21.060;105.826;2023-03-23T07:02:56;100199.91;;;29.15;100.00
76358;BME280;65185;21.060;105.826;2023-03-23T07:05:23;100194.00;;;29.17;100.00
76358;BME280;65185;21.060;105.826;2023-03-23T07:07:50;100183.72;;;29.14;100.00
76358;BME280;65185;21.060;105.826;2023-03-23T07:10:17;100183.31;;;29.12;100.00
76358;BME280;65185;21.060;105.826;2023-03-23T07:12:44;100172.28;;;29.08;100.00
76358;BME280;65185;21.060;105.826;2023-03-23T07:15:11;100169.91;;;29.03;100.00
76358;BME280;65185;21.060;105.826;2023-03-23T07:17:39;100165.56;;;29.02;100.00
76358;BME280;65185;21.060;105.826;2023-03-23T07:20:07;100165.16;;;29.11;100.00
76358;BME280;65185;21.060;105.826;2023-03-23T07:22:34;100155.69;;;28.98;100.00
76358;BME280;65185;21.060;105.826;2023-03-23T07:25:01;100156.84;;;29.11;100.00
76358;BME280;65185;21.060;105.826;2023-03-23T07:27:28;100144.63;;;29.08;100.00
76358;BME280;65185;21.060;105.826;2023-03-23T07:29:55;100145.41;;;29.16;100.00
76358;BME280;65185;21.060;105.826;2023-03-23T07:32:23;100143.81;;;29.22;100.00
76358;BME280;65185;21.060;105.826;2023-03-23T07:34:50;100142.25;;;29.24;100.00
76358;BME280;65185;21.060;105.826;2023-03-23T07:37:17;100132.75;;;29.22;100.00
76358;BME280;65185;21.060;105.826;2023-03-23T07:39:45;100127.22;;;29.11;100.00
76358;BME280;65185;21.060;105.826;2023-03-23T07:42:21;100122.50;;;29.19;100.00
76358;BME280;65185;21.060;105.826;2023-03-23T07:44:48;100116.19;;;29.08;100.00
76358;BME280;65185;21.060;105.826;2023-03-23T07:47:18;100115.75;;;28.99;100.00
76358;BME280;65185;21.060;105.826;2023-03-23T07:49:45;100109.84;;;29.07;100.00
76358;BME280;65185;21.060;105.826;2023-03-23T07:52:11;100102.34;;;29.04;100.00
76358;BME280;65185;21.060;105.826;2023-03-23T07:54:42;100098.00;;;29.07;100.00
76358;BME280;65185;21.060;105.826;2023-03-23T07:57:12;100100.78;;;29.03;100.00
76358;BME280;65185;21.060;105.826;2023-03-23T07:59:38;100096.81;;;29.08;100.00
76358;BME280;65185;21.060;105.826;2023-03-23T08:02:07;100102.72;;;29.17;100.00
76358;BME280;65185;21.060;105.826;2023-03-23T08:04:37;100099.97;;;29.10;100.00
76358;BME280;65185;21.060;105.826;2023-03-23T08:07:05;100098.78;;;29.11;100.00
76358;BME280;65185;21.060;105.826;2023-03-23T08:09:32;100101.94;;;29.20;100.00
76358;BME280;65185;21.060;105.826;2023-03-23T08:12:02;100103.13;;;29.12;100.00
76358;BME280;65185;21.060;105.826;2023-03-23T08:14:46;100101.94;;;29.06;100.00
76358;BME280;65185;21.060;105.826;2023-03-23T08:17:14;100103.13;;;29.05;100.00
76358;BME280;65185;21.060;105.826;2023-03-23T08:19:41;100102.72;;;28.99;100.00
76358;BME280;65185;21.060;105.826;2023-03-23T08:22:09;100095.63;;;28.94;100.00
76358;BME280;65185;21.060;105.826;2023-03-23T08:24:35;100090.50;;;28.97;100.00
76358;BME280;65185;21.060;105.826;2023-03-23T08:27:02;100094.44;;;29.10;100.00
76358;BME280;65185;21.060;105.826;2023-03-23T08:29:29;100088.50;;;29.04;100.00
76358;BME280;65185;21.060;105.826;2023-03-23T08:31:58;100090.09;;;28.98;100.00
76358;BME280;65185;21.060;105.826;2023-03-23T08:34:25;100094.06;;;28.97;100.00
76358;BME280;65185;21.060;105.826;2023-03-23T08:36:52;100085.34;;;29.06;100.00
76358;BME280;65185;21.060;105.826;2023-03-23T08:39:19;100080.63;;;29.13;100.00
76358;BME280;65185;21.060;105.826;2023-03-23T08:41:45;100086.13;;;29.17;100.00
76358;BME280;65185;21.060;105.826;2023-03-23T08:44:12;100080.59;;;29.27;100.00
76358;BME280;65185;21.060;105.826;2023-03-23T08:46:39;100085.72;;;29.15;100.00
76358;BME280;65185;21.060;105.826;2023-03-23T08:49:06;100079.06;;;29.09;100.00
76358;BME280;65185;21.060;105.826;2023-03-23T08:51:33;100086.16;;;29.13;100.00
76358;BME280;65185;21.060;105.826;2023-03-23T08:54:00;100096.03;;;29.14;100.00
76358;BME280;65185;21.060;105.826;2023-03-23T08:56:27;100082.97;;;29.29;100.00
76358;BME280;65185;21.060;105.826;2023-03-23T08:58:54;100080.59;;;29.31;100.00
76358;BME280;65185;21.060;105.826;2023-03-23T09:01:20;100090.88;;;29.13;100.00
76358;BME280;65185;21.060;105.826;2023-03-23T09:03:47;100095.25;;;29.14;100.00
76358;BME280;65185;21.060;105.826;2023-03-23T09:06:14;100098.00;;;29.14;100.00
76358;BME280;65185;21.060;105.826;2023-03-23T09:08:41;100091.66;;;29.10;100.00
76358;BME280;65185;21.060;105.826;2023-03-23T09:11:09;100091.69;;;29.13;100.00
76358;BME280;65185;21.060;105.826;2023-03-23T09:13:37;100089.28;;;29.15;100.00
76358;BME280;65185;21.060;105.826;2023-03-23T09:16:05;100095.63;;;29.16;100.00
76358;BME280;65185;21.060;105.826;2023-03-23T09:18:33;100090.47;;;29.21;100.00
76358;BME280;65185;21.060;105.826;2023-03-23T09:21:01;100090.88;;;29.09;100.00
76358;BME280;65185;21.060;105.826;2023-03-23T09:23:29;100093.66;;;29.06;100.00
76358;BME280;65185;21.060;105.826;2023-03-23T09:26:18;100093.25;;;29.00;100.00
76358;BME280;65185;21.060;105.826;2023-03-23T09:28:51;100086.94;;;29.07;100.00
76358;BME280;65185;21.060;105.826;2023-03-23T09:31:18;100084.97;;;29.00;100.00
76358;BME280;65185;21.060;105.826;2023-03-23T09:33:48;100085.38;;;28.95;100.00
76358;BME280;65185;21.060;105.826;2023-03-23T09:36:19;100085.78;;;28.97;100.00
76358;BME280;65185;21.060;105.826;2023-03-23T09:38:48;100079.81;;;29.06;100.00
76358;BME280;65185;21.060;105.826;2023-03-23T09:44:31;100100.75;;;29.00;100.00
76358;BME280;65185;21.060;105.826;2023-03-23T09:47:25;100092.47;;;29.42;100.00
76358;BME280;65185;21.060;105.826;2023-03-23T09:50:03;100106.28;;;29.42;100.00
76358;BME280;65185;21.060;105.826;2023-03-23T09:52:55;100108.19;;;29.59;100.00
76358;BME280;65185;21.060;105.826;2023-03-23T09:55:23;100111.38;;;29.58;100.00
76358;BME280;65185;21.060;105.826;2023-03-23T10:00:32;100101.94;;;29.20;100.00
76358;BME280;65185;21.060;105.826;2023-03-23T10:07:59;100105.91;;;28.98;100.00
76358;BME280;65185;21.060;105.826;2023-03-23T10:13:17;100117.72;;;28.77;100.00
76358;BME280;65185;21.060;105.826;2023-03-23T10:15:47;100118.53;;;28.74;100.00
76358;BME280;65185;21.060;105.826;2023-03-23T10:21:10;100129.53;;;28.70;100.00
76358;BME280;65185;21.060;105.826;2023-03-23T10:24:03;100139.84;;;28.73;100.00
76358;BME280;65185;21.060;105.826;2023-03-23T10:26:54;100136.66;;;28.64;100.00
76358;BME280;65185;21.060;105.826;2023-03-23T10:29:34;100142.16;;;28.57;100.00
76358;BME280;65185;21.060;105.826;2023-03-23T10:32:15;100150.81;;;28.48;100.00
76358;BME280;65185;21.060;105.826;2023-03-23T10:34:58;100157.88;;;28.42;100.00
76358;BME280;65185;21.060;105.826;2023-03-23T10:37:31;100165.78;;;28.40;100.00
76358;BME280;65185;21.060;105.826;2023-03-23T10:40:00;100167.38;;;28.41;100.00
76358;BME280;65185;21.060;105.826;2023-03-23T10:42:34;100170.91;;;28.35;100.00
76358;BME280;65185;21.060;105.826;2023-03-23T10:47:48;100183.91;;;28.31;100.00
76358;BME280;65185;21.060;105.826;2023-03-23T10:50:22;100201.28;;;28.35;100.00
76358;BME280;65185;21.060;105.826;2023-03-23T10:52:51;100196.53;;;28.28;100.00
76358;BME280;65185;21.060;105.826;2023-03-23T10:55:21;100203.59;;;28.22;100.00
76358;BME280;65185;21.060;105.826;2023-03-23T10:58:03;100206.41;;;28.33;100.00
76358;BME280;65185;21.060;105.826;2023-03-23T11:00:31;100208.34;;;28.25;100.00
76358;BME280;65185;21.060;105.826;2023-03-23T11:03:06;100209.13;;;28.22;100.00
76358;BME280;65185;21.060;105.826;2023-03-23T11:05:38;100217.34;;;28.15;100.00
76358;BME280;65185;21.060;105.826;2023-03-23T11:08:23;100216.91;;;28.09;100.00
76358;BME280;65185;21.060;105.826;2023-03-23T11:13:48;100216.97;;;28.17;100.00
76358;BME280;65185;21.060;105.826;2023-03-23T11:16:31;100216.09;;;28.05;100.00
76358;BME280;65185;21.060;105.826;2023-03-23T11:19:11;100214.50;;;28.04;100.00
76358;BME280;65185;21.060;105.826;2023-03-23T11:21:40;100218.44;;;28.00;100.00
76358;BME280;65185;21.060;105.826;2023-03-23T11:24:08;100223.16;;;27.99;100.00
76358;BME280;65185;21.060;105.826;2023-03-23T11:26:36;100233.41;;;27.95;100.00
76358;BME280;65185;21.060;105.826;2023-03-23T11:31:45;100225.94;;;27.99;100.00
76358;BME280;65185;21.060;105.826;2023-03-23T11:34:21;100220.41;;;27.99;100.00
76358;BME280;65185;21.060;105.826;2023-03-23T11:37:00;100227.47;;;27.93;100.00
76358;BME280;65185;21.060;105.826;2023-03-23T11:39:30;100233.41;;;27.99;100.00
76358;BME280;65185;21.060;105.826;2023-03-23T11:41:59;100237.28;;;27.87;100.00
76358;BME280;65185;21.060;105.826;2023-03-23T11:44:43;100240.03;;;27.84;100.00
76358;BME280;65185;21.060;105.826;2023-03-23T11:47:40;100232.13;;;27.82;100.00
76358;BME280;65185;21.060;105.826;2023-03-23T11:50:31;100239.97;;;27.77;100.00
76358;BME280;65185;21.060;105.826;2023-03-23T11:58:28;100234.00;;;27.67;100.00
76358;BME280;65185;21.060;105.826;2023-03-23T12:01:09;100242.25;;;27.64;100.00
76358;BME280;65185;21.060;105.826;2023-03-23T12:04:19;100254.06;;;27.64;100.00
76358;BME280;65185;21.060;105.826;2023-03-23T12:27:07;100269.88;;;27.67;100.00
76358;BME280;65185;21.060;105.826;2023-03-23T12:30:20;100270.59;;;27.61;100.00
76358;BME280;65185;21.060;105.826;2023-03-23T12:41:22;100286.72;;;27.59;100.00
76358;BME280;65185;21.060;105.826;2023-03-23T12:43:57;100277.38;;;27.70;100.00
76358;BME280;65185;21.060;105.826;2023-03-23T12:49:24;100300.50;;;27.52;100.00
76358;BME280;65185;21.060;105.826;2023-03-23T12:54:47;100301.56;;;27.44;100.00
76358;BME280;65185;21.060;105.826;2023-03-23T13:00:24;100317.19;;;27.29;100.00
76358;BME280;65185;21.060;105.826;2023-03-23T13:03:07;100316.03;;;27.34;100.00
76358;BME280;65185;21.060;105.826;2023-03-23T13:06:17;100319.56;;;27.30;100.00
76358;BME280;65185;21.060;105.826;2023-03-23T13:08:53;100321.06;;;27.24;100.00
76358;BME280;65185;21.060;105.826;2023-03-23T13:11:46;100330.88;;;27.22;100.00
76358;BME280;65185;21.060;105.826;2023-03-23T13:25:50;100358.09;;;27.23;100.00
76358;BME280;65185;21.060;105.826;2023-03-23T13:28:23;100361.56;;;27.17;100.00
76358;BME280;65185;21.060;105.826;2023-03-23T13:31:03;100354.41;;;27.12;100.00
76358;BME280;65185;21.060;105.826;2023-03-23T13:33:35;100369.72;;;27.10;100.00
76358;BME280;65185;21.060;105.826;2023-03-23T13:36:11;100364.97;;;27.07;100.00
76358;BME280;65185;21.060;105.826;2023-03-23T13:38:46;100374.78;;;27.04;100.00
76358;BME280;65185;21.060;105.826;2023-03-23T13:41:16;100376.84;;;27.11;100.00
76358;BME280;65185;21.060;105.826;2023-03-23T13:43:44;100378.78;;;27.10;100.00
76358;BME280;65185;21.060;105.826;2023-03-23T13:49:15;100389.00;;;27.06;100.00
76358;BME280;65185;21.060;105.826;2023-03-23T13:56:56;100401.94;;;27.02;100.00
76358;BME280;65185;21.060;105.826;2023-03-23T14:05:30;100405.41;;;26.96;100.00
76358;BME280;65185;21.060;105.826;2023-03-23T14:16:04;100416.38;;;26.92;100.00
76358;BME280;65185;21.060;105.826;2023-03-23T14:18:36;100421.03;;;26.88;100.00
76358;BME280;65185;21.060;105.826;2023-03-23T14:21:04;100425.06;;;26.94;100.00
76358;BME280;65185;21.060;105.826;2023-03-23T14:23:35;100420.31;;;26.91;100.00
76358;BME280;65185;21.060;105.826;2023-03-23T14:26:09;100432.41;;;26.86;100.00
76358;BME280;65185;21.060;105.826;2023-03-23T14:28:39;100441.41;;;26.83;100.00
76358;BME280;65185;21.060;105.826;2023-03-23T14:31:19;100430.34;;;26.80;100.00
76358;BME280;65185;21.060;105.826;2023-03-23T14:33:47;100425.22;;;26.78;100.00
76358;BME280;65185;21.060;105.826;2023-03-23T14:36:27;100442.53;;;26.79;100.00
76358;BME280;65185;21.060;105.826;2023-03-23T14:41:30;100445.69;;;26.81;100.00
76358;BME280;65185;21.060;105.826;2023-03-23T14:44:00;100445.41;;;26.86;100.00
76358;BME280;65185;21.060;105.826;2023-03-23T14:46:30;100448.28;;;26.93;100.00